Time;durP1;ratioP1;P1;durP2;ratioP2;P2;SDS_P1;SDS_P2;PMS_P1;PMS_P2;Temp;Humidity;BMP_temperature;BMP_pressure;BME280_temperature;BME280_humidity;BME280_pressure;Samples;Min_cycle;Max_cycle;Signal;HPM_P1;HPM_P2
2022/05/10 00:00:39;;;;;;;8.63;4.78;;;15.20;80.00;;;;;;4905325;29;20513;-72
2022/05/10 00:03:07;;;;;;;12.88;6.03;;;15.10;81.10;;;;;;4904917;29;20037;-72
2022/05/10 00:05:38;;;;;;;9.82;5.53;;;15.10;80.50;;;;;;4905318;29;20347;-71
2022/05/10 00:08:06;;;;;;;15.27;5.85;;;15.00;80.60;;;;;;4901928;29;20051;-71
2022/05/10 00:10:33;;;;;;;9.90;4.97;;;15.00;80.40;;;;;;4904825;29;20147;-71
2022/05/10 00:12:59;;;;;;;9.45;5.30;;;15.00;80.60;;;;;;4899478;29;20500;-71
2022/05/10 00:15:25;;;;;;;12.07;5.78;;;15.00;81.10;;;;;;4887848;29;20424;-71
2022/05/10 00:17:51;;;;;;;8.40;5.15;;;14.90;81.80;;;;;;4904906;29;20484;-71
2022/05/10 00:20:20;;;;;;;11.05;5.15;;;14.90;79.70;;;;;;4905152;29;20407;-71
2022/05/10 00:22:46;;;;;;;8.38;5.10;;;14.90;80.60;;;;;;4903518;29;20059;-71
2022/05/10 00:25:16;;;;;;;11.93;6.35;;;15.00;81.10;;;;;;4900734;29;20396;-71
2022/05/10 00:27:42;;;;;;;10.52;5.15;;;15.00;79.50;;;;;;4902384;29;20096;-72
2022/05/10 00:30:08;;;;;;;9.60;5.18;;;15.10;81.00;;;;;;4905421;29;20067;-71
2022/05/10 00:32:36;;;;;;;15.57;7.30;;;15.20;80.30;;;;;;4904378;29;20070;-71
2022/05/10 00:35:03;;;;;;;8.05;5.85;;;15.20;79.90;;;;;;4903017;29;20110;-72
2022/05/10 00:37:29;;;;;;;8.52;6.05;;;15.20;80.30;;;;;;4904925;29;20033;-72
2022/05/10 00:39:55;;;;;;;6.85;5.90;;;15.30;80.60;;;;;;4905137;29;20059;-72
2022/05/10 00:42:30;;;;;;;11.00;5.63;;;15.20;80.90;;;;;;4905257;29;20047;-72
2022/05/10 00:45:03;;;;;;;10.73;6.22;;;15.30;80.90;;;;;;4905160;29;20425;-71
2022/05/10 00:47:45;;;;;;;8.60;5.53;;;15.20;80.70;;;;;;4900813;29;20040;-72
2022/05/10 00:50:22;;;;;;;12.38;5.80;;;15.30;81.30;;;;;;4903074;29;20312;-73
2022/05/10 00:53:01;;;;;;;9.27;5.60;;;15.20;81.40;;;;;;4908167;29;20099;-72
2022/05/10 00:55:54;;;;;;;7.43;5.70;;;15.20;82.10;;;;;;4906232;29;20028;-72
2022/05/10 00:58:32;;;;;;;10.05;5.63;;;15.20;81.80;;;;;;4899545;29;20553;-71
2022/05/10 01:00:59;;;;;;;10.73;5.65;;;15.20;81.80;;;;;;4897272;29;20059;-72
2022/05/10 01:03:37;;;;;;;11.90;6.22;;;15.20;81.90;;;;;;4890049;29;20346;-71
2022/05/10 01:06:25;;;;;;;12.48;6.32;;;15.10;81.90;;;;;;4907368;29;20052;-70
2022/05/10 01:09:08;;;;;;;11.52;6.05;;;15.10;82.60;;;;;;4907143;29;20052;-71
2022/05/10 01:11:51;;;;;;;8.82;6.35;;;15.10;82.90;;;;;;4908235;29;20068;-71
2022/05/10 01:14:26;;;;;;;10.57;5.93;;;15.00;82.50;;;;;;4908748;29;20036;-71
2022/05/10 01:16:52;;;;;;;10.88;6.90;;;15.00;82.50;;;;;;4906473;29;20608;-70
2022/05/10 01:19:18;;;;;;;9.50;5.95;;;15.20;81.70;;;;;;4901981;29;20036;-70
2022/05/10 01:21:58;;;;;;;11.20;6.80;;;15.30;82.50;;;;;;4906753;29;20491;-70
2022/05/10 01:24:41;;;;;;;9.40;6.53;;;15.40;81.80;;;;;;4900318;29;20032;-70
2022/05/10 01:27:32;;;;;;;12.93;6.85;;;15.40;82.40;;;;;;4904206;29;20107;-71
2022/05/10 01:30:04;;;;;;;10.20;6.40;;;15.40;82.90;;;;;;4908377;29;20036;-70
2022/05/10 01:35:26;;;;;;;11.90;6.38;;;15.30;83.80;;;;;;4902806;29;20059;-71
2022/05/10 01:37:59;;;;;;;13.65;6.57;;;15.20;84.90;;;;;;4894355;29;20092;-71
2022/05/10 01:40:28;;;;;;;12.43;6.53;;;15.10;84.80;;;;;;4891488;29;20038;-71
2022/05/10 01:43:12;;;;;;;12.75;7.22;;;15.00;85.40;;;;;;4908261;29;20047;-71
2022/05/10 01:45:51;;;;;;;12.45;6.93;;;15.00;85.40;;;;;;4908590;29;20039;-71
2022/05/10 01:48:21;;;;;;;17.38;7.85;;;15.00;85.30;;;;;;4908652;29;20044;-71
2022/05/10 01:51:00;;;;;;;11.82;7.60;;;15.00;85.40;;;;;;4899148;29;20036;-70
2022/05/10 01:53:35;;;;;;;10.48;6.50;;;14.90;86.30;;;;;;4895413;29;20508;-71
2022/05/10 01:56:01;;;;;;;13.75;7.68;;;14.90;87.30;;;;;;4898758;29;20526;-71
2022/05/10 01:58:33;;;;;;;10.50;7.15;;;14.80;87.10;;;;;;4906268;29;20040;-71
2022/05/10 02:01:03;;;;;;;9.90;7.47;;;14.70;88.50;;;;;;4898064;29;20038;-71
2022/05/10 02:03:47;;;;;;;13.30;8.90;;;14.70;87.80;;;;;;4905841;29;20040;-71
2022/05/10 02:06:42;;;;;;;14.95;9.13;;;14.70;88.20;;;;;;4902695;29;20319;-71
2022/05/10 02:09:29;;;;;;;14.07;9.95;;;14.70;87.60;;;;;;4901940;29;20467;-72
2022/05/10 02:12:00;;;;;;;15.10;9.20;;;14.70;88.70;;;;;;4903712;29;20271;-70
2022/05/10 02:14:50;;;;;;;18.65;10.65;;;14.80;87.60;;;;;;4896310;29;20067;-71
2022/05/10 02:17:27;;;;;;;15.85;9.85;;;14.80;88.20;;;;;;4900020;29;20748;-71
2022/05/10 02:20:15;;;;;;;17.30;10.10;;;14.80;88.40;;;;;;4895630;29;20065;-71
2022/05/10 02:22:49;;;;;;;16.92;9.00;;;14.70;88.70;;;;;;4896882;29;20531;-71
2022/05/10 02:25:22;;;;;;;15.98;9.38;;;14.70;88.60;;;;;;4902618;29;20024;-71
2022/05/10 02:27:55;;;;;;;15.52;9.77;;;14.70;89.30;;;;;;4892453;29;20042;-71
2022/05/10 02:30:24;;;;;;;15.90;9.60;;;14.60;90.00;;;;;;4899591;29;20520;-71
2022/05/10 02:33:06;;;;;;;18.33;9.85;;;14.50;90.00;;;;;;4898630;29;20193;-71
2022/05/10 02:35:42;;;;;;;17.25;9.63;;;14.50;90.50;;;;;;4887834;29;20032;-71
2022/05/10 02:38:14;;;;;;;14.27;9.38;;;14.40;90.70;;;;;;4919237;29;20043;-71
2022/05/10 02:40:42;;;;;;;15.95;9.60;;;14.40;90.90;;;;;;4902416;29;20044;-71
2022/05/10 02:43:16;;;;;;;16.50;10.02;;;14.30;90.90;;;;;;4903512;29;20295;-71
2022/05/10 02:45:42;;;;;;;13.75;9.18;;;14.30;90.90;;;;;;4906944;29;20095;-71
2022/05/10 02:48:21;;;;;;;18.73;10.27;;;14.20;91.00;;;;;;4906722;29;20452;-71
2022/05/10 02:50:47;;;;;;;17.73;10.18;;;14.30;91.10;;;;;;4904070;29;20087;-71
2022/05/10 02:53:12;;;;;;;18.58;11.75;;;14.20;91.10;;;;;;4906428;29;20548;-71
2022/05/10 02:56:03;;;;;;;16.88;11.35;;;14.20;91.10;;;;;;4907267;29;20043;-71
2022/05/10 02:58:47;;;;;;;22.20;12.00;;;14.20;91.20;;;;;;4906370;29;20054;-71
2022/05/10 03:01:26;;;;;;;20.80;12.38;;;14.20;90.80;;;;;;4900023;29;20601;-71
2022/05/10 03:03:53;;;;;;;20.40;13.50;;;14.30;90.60;;;;;;4905839;29;20036;-71
2022/05/10 03:06:23;;;;;;;21.92;12.55;;;14.30;90.50;;;;;;4907449;29;20056;-71
2022/05/10 03:08:49;;;;;;;18.60;11.85;;;14.20;90.80;;;;;;4921626;29;20044;-71
2022/05/10 03:11:15;;;;;;;19.25;12.65;;;14.20;91.00;;;;;;4907081;29;20040;-72
2022/05/10 03:13:43;;;;;;;20.13;12.10;;;14.10;90.90;;;;;;4906256;29;20063;-71
2022/05/10 03:16:08;;;;;;;21.55;12.32;;;14.10;91.00;;;;;;4906680;29;20385;-71
2022/05/10 03:18:35;;;;;;;19.95;11.32;;;14.10;91.30;;;;;;4894007;29;20048;-71
2022/05/10 03:21:00;;;;;;;19.27;11.35;;;14.10;91.60;;;;;;4918028;29;20044;-71
2022/05/10 03:23:27;;;;;;;19.38;11.40;;;14.00;91.30;;;;;;4908027;29;20109;-71
2022/05/10 03:25:57;;;;;;;20.58;11.68;;;14.00;91.20;;;;;;4905563;29;20036;-71
2022/05/10 03:28:23;;;;;;;18.73;11.13;;;14.00;90.70;;;;;;4905734;29;20043;-71
2022/05/10 03:30:49;;;;;;;17.35;10.43;;;14.00;91.20;;;;;;4906658;29;20111;-71
2022/05/10 03:33:15;;;;;;;17.92;8.75;;;14.00;90.80;;;;;;4905928;29;20570;-71
2022/05/10 03:35:41;;;;;;;13.60;7.85;;;13.90;90.80;;;;;;4896635;29;20040;-71
2022/05/10 03:38:07;;;;;;;14.75;7.50;;;13.90;86.80;;;;;;4906549;29;20048;-72
2022/05/10 03:40:32;;;;;;;11.90;7.75;;;14.00;88.60;;;;;;4902721;29;20028;-71
2022/05/10 03:42:58;;;;;;;12.45;7.03;;;14.00;85.80;;;;;;4906274;29;20051;-71
2022/05/10 03:45:24;;;;;;;11.48;6.63;;;14.00;88.00;;;;;;4906710;29;20484;-71
2022/05/10 03:47:51;;;;;;;13.63;6.70;;;13.90;86.00;;;;;;4906639;29;20300;-71
2022/05/10 03:50:20;;;;;;;10.48;6.32;;;13.90;86.30;;;;;;4904488;29;20488;-71
2022/05/10 03:52:46;;;;;;;10.75;7.13;;;13.90;87.20;;;;;;4900833;29;20035;-71
2022/05/10 03:55:15;;;;;;;13.75;8.23;;;13.80;86.80;;;;;;4904507;29;20035;-71
2022/05/10 03:57:41;;;;;;;11.27;7.72;;;13.80;86.70;;;;;;4906062;29;20036;-72
2022/05/10 04:00:10;;;;;;;12.65;9.13;;;13.80;87.80;;;;;;4906996;29;20507;-71
2022/05/10 04:02:36;;;;;;;15.70;10.30;;;13.80;87.40;;;;;;4903364;29;20400;-72
2022/05/10 04:05:02;;;;;;;16.17;10.73;;;13.80;88.30;;;;;;4904663;29;20039;-71
2022/05/10 04:07:28;;;;;;;21.17;11.60;;;13.80;88.80;;;;;;4904692;29;20056;-71
2022/05/10 04:09:54;;;;;;;21.00;14.27;;;13.80;89.50;;;;;;4905307;29;20114;-71
2022/05/10 04:12:19;;;;;;;20.85;13.52;;;13.70;90.10;;;;;;4906197;29;20059;-71
2022/05/10 04:14:45;;;;;;;22.52;14.90;;;13.70;90.50;;;;;;4897151;29;20055;-70
2022/05/10 04:17:11;;;;;;;25.95;14.85;;;13.60;90.80;;;;;;4899257;29;20032;-70
2022/05/10 04:19:36;;;;;;;23.10;15.18;;;13.60;91.20;;;;;;4904797;29;20040;-71
2022/05/10 04:22:02;;;;;;;29.65;15.63;;;13.60;91.10;;;;;;4903982;29;20107;-71
2022/05/10 04:24:28;;;;;;;24.50;15.50;;;13.60;91.30;;;;;;4905165;29;20123;-71
2022/05/10 04:26:54;;;;;;;28.17;16.13;;;13.50;91.50;;;;;;4904055;29;20032;-70
2022/05/10 04:29:20;;;;;;;24.55;16.20;;;13.50;91.50;;;;;;4905637;29;20079;-71
2022/05/10 04:31:45;;;;;;;29.55;18.65;;;13.50;91.70;;;;;;4902317;29;20496;-71
2022/05/10 04:34:11;;;;;;;31.35;17.73;;;13.50;91.80;;;;;;4903571;29;20487;-70
2022/05/10 04:36:37;;;;;;;34.33;19.80;;;13.50;92.00;;;;;;4905504;29;20135;-70
2022/05/10 04:39:03;;;;;;;36.75;21.77;;;13.50;92.10;;;;;;4904580;29;20039;-70
2022/05/10 04:41:35;;;;;;;33.78;21.02;;;13.50;92.30;;;;;;4903750;29;20028;-71
2022/05/10 04:44:04;;;;;;;34.30;20.55;;;13.50;92.40;;;;;;4905090;29;20055;-71
2022/05/10 04:46:31;;;;;;;32.72;20.55;;;13.40;92.50;;;;;;4903548;29;20047;-70
2022/05/10 04:48:57;;;;;;;39.97;23.08;;;13.30;92.70;;;;;;4903990;29;20099;-71
2022/05/10 04:51:23;;;;;;;35.15;21.30;;;13.30;92.90;;;;;;4901787;29;20107;-71
2022/05/10 04:53:49;;;;;;;35.58;21.77;;;13.40;93.10;;;;;;4905221;29;20040;-71
2022/05/10 04:56:15;;;;;;;44.80;22.83;;;13.40;93.00;;;;;;4903111;29;20391;-71
2022/05/10 04:58:40;;;;;;;37.13;22.40;;;13.40;93.00;;;;;;4904015;29;20040;-71
2022/05/10 05:01:12;;;;;;;31.25;19.42;;;13.50;93.10;;;;;;4899771;29;20487;-70
2022/05/10 05:03:41;;;;;;;;;;;13.50;92.70;;;;;;4903506;29;20028;-71
2022/05/10 05:06:07;;;;;;;31.67;18.08;;;13.50;92.70;;;;;;4902628;29;19930;-71
2022/05/10 05:08:32;;;;;;;27.80;18.40;;;13.50;92.90;;;;;;4903516;29;20126;-71
2022/05/10 05:10:58;;;;;;;29.67;18.60;;;13.50;92.90;;;;;;4903852;29;20512;-70
2022/05/10 05:13:25;;;;;;;27.65;18.38;;;13.60;92.80;;;;;;4903948;29;20570;-71
2022/05/10 05:15:51;;;;;;;28.77;20.20;;;13.60;92.60;;;;;;4902657;29;20040;-71
2022/05/10 05:18:17;;;;;;;32.17;19.90;;;13.60;92.80;;;;;;4901756;29;20043;-71
2022/05/10 05:20:42;;;;;;;33.90;18.50;;;13.60;92.80;;;;;;4901625;29;20044;-71
2022/05/10 05:23:11;;;;;;;30.65;18.45;;;13.60;92.80;;;;;;4899173;29;20040;-71
2022/05/10 05:25:38;;;;;;;29.02;18.40;;;13.60;92.60;;;;;;4904831;29;20125;-71
2022/05/10 05:28:04;;;;;;;32.58;19.63;;;13.60;92.80;;;;;;4904613;29;20052;-71
2022/05/10 05:30:30;;;;;;;29.48;20.38;;;13.60;92.60;;;;;;4906706;29;20506;-71
2022/05/10 05:32:56;;;;;;;32.92;19.70;;;13.50;92.90;;;;;;4905609;29;20036;-71
2022/05/10 05:35:21;;;;;;;30.40;18.75;;;13.50;92.80;;;;;;4904753;29;20032;-72
2022/05/10 05:37:47;;;;;;;32.97;20.48;;;13.50;92.90;;;;;;4908494;29;20149;-71
2022/05/10 05:40:16;;;;;;;40.50;23.13;;;13.50;92.80;;;;;;4907112;29;20032;-73
2022/05/10 05:42:43;;;;;;;30.30;18.48;;;13.60;92.80;;;;;;4918122;29;20064;-70
2022/05/10 05:45:11;;;;;;;27.45;18.50;;;13.80;92.40;;;;;;4905089;29;20060;-74
2022/05/10 05:47:37;;;;;;;28.48;17.95;;;14.10;91.80;;;;;;4904437;29;20472;-73
2022/05/10 05:50:07;;;;;;;25.27;17.25;;;14.30;91.20;;;;;;4904591;29;20217;-71
2022/05/10 05:52:33;;;;;;;28.42;18.17;;;14.50;90.70;;;;;;4908281;29;20586;-71
2022/05/10 05:54:59;;;;;;;25.88;16.52;;;14.60;90.60;;;;;;4903563;29;20039;-72
2022/05/10 05:57:24;;;;;;;18.85;13.80;;;14.60;90.30;;;;;;4903420;29;20416;-71
2022/05/10 05:59:54;;;;;;;19.67;12.82;;;14.70;90.30;;;;;;4903862;29;20148;-71
2022/05/10 06:02:22;;;;;;;17.88;12.05;;;14.60;90.20;;;;;;4896989;29;20311;-71
2022/05/10 06:04:49;;;;;;;19.95;11.10;;;14.70;90.60;;;;;;4904576;29;20062;-71
2022/05/10 06:07:15;;;;;;;18.83;10.30;;;14.70;90.20;;;;;;4907107;29;20056;-71
2022/05/10 06:09:42;;;;;;;16.77;10.82;;;14.90;89.80;;;;;;4905186;29;20055;-71
2022/05/10 06:12:10;;;;;;;16.67;9.80;;;15.10;88.70;;;;;;4906415;29;20483;-71
2022/05/10 06:14:36;;;;;;;16.67;9.90;;;15.30;87.30;;;;;;4907039;29;20047;-71
2022/05/10 06:17:03;;;;;;;15.70;10.02;;;15.60;86.00;;;;;;4903723;29;20119;-71
2022/05/10 06:19:29;;;;;;;15.73;9.95;;;16.00;85.30;;;;;;4906150;29;20040;-71
2022/05/10 06:21:55;;;;;;;14.05;9.23;;;16.10;83.30;;;;;;4906978;29;20032;-70
2022/05/10 06:24:25;;;;;;;14.07;9.10;;;16.10;83.10;;;;;;4904711;29;20036;-71
2022/05/10 06:26:51;;;;;;;14.32;9.02;;;16.00;84.60;;;;;;4907733;29;20149;-72
2022/05/10 06:29:17;;;;;;;15.88;9.48;;;15.90;85.10;;;;;;4907731;29;20059;-73
2022/05/10 06:31:44;;;;;;;13.88;9.00;;;15.80;84.00;;;;;;4904499;29;20488;-73
2022/05/10 06:34:10;;;;;;;15.00;9.32;;;15.90;84.60;;;;;;4901607;29;20508;-71
2022/05/10 06:36:37;;;;;;;14.10;8.73;;;16.00;84.30;;;;;;4905781;29;20349;-73
2022/05/10 06:39:03;;;;;;;14.63;8.88;;;16.50;82.90;;;;;;4916746;29;20376;-71
2022/05/10 06:41:31;;;;;;;13.20;9.05;;;16.80;83.60;;;;;;4900843;29;20039;-70
2022/05/10 06:43:57;;;;;;;15.48;9.05;;;16.90;81.80;;;;;;4905260;29;20034;-71
2022/05/10 06:46:23;;;;;;;15.10;9.73;;;16.90;81.70;;;;;;4893417;29;20115;-71
2022/05/10 06:48:50;;;;;;;13.95;9.20;;;16.90;82.80;;;;;;4900348;29;20495;-70
2022/05/10 06:51:17;;;;;;;14.15;9.85;;;17.00;83.30;;;;;;4901178;29;20576;-70
2022/05/10 06:53:44;;;;;;;15.40;8.90;;;17.00;80.60;;;;;;4899291;29;20055;-73
2022/05/10 06:56:09;;;;;;;16.70;9.18;;;17.10;82.30;;;;;;4907893;29;20500;-70
2022/05/10 06:58:36;;;;;;;16.13;9.60;;;17.30;80.50;;;;;;4903343;29;20091;-70
2022/05/10 07:01:02;;;;;;;14.77;9.30;;;17.30;80.90;;;;;;4891066;29;20559;-71
2022/05/10 07:03:32;;;;;;;15.63;8.82;;;17.20;82.40;;;;;;4903244;29;20043;-71
2022/05/10 07:05:59;;;;;;;14.00;8.52;;;17.00;82.00;;;;;;4907211;29;20040;-70
2022/05/10 07:08:25;;;;;;;15.15;8.45;;;16.80;82.30;;;;;;4900805;29;20036;-72
2022/05/10 07:10:51;;;;;;;15.32;9.02;;;16.50;83.70;;;;;;4904734;29;20033;-70
2022/05/10 07:13:20;;;;;;;17.25;9.10;;;16.10;84.30;;;;;;4904867;29;20108;-73
2022/05/10 07:15:46;;;;;;;16.45;10.00;;;15.80;86.60;;;;;;4898265;29;20211;-72
2022/05/10 07:18:12;;;;;;;16.60;9.18;;;15.80;87.90;;;;;;4888141;29;20032;-72
2022/05/10 07:20:38;;;;;;;18.63;9.27;;;15.80;87.80;;;;;;4900404;29;20042;-72
2022/05/10 07:23:05;;;;;;;21.23;9.13;;;15.70;87.60;;;;;;4906076;29;20379;-72
2022/05/10 07:25:31;;;;;;;14.50;9.57;;;15.80;87.60;;;;;;4892858;29;20532;-72
2022/05/10 07:27:57;;;;;;;18.65;10.07;;;16.10;89.10;;;;;;4894382;29;20048;-72
2022/05/10 07:30:25;;;;;;;14.20;10.57;;;16.00;86.40;;;;;;4889512;29;20219;-72
2022/05/10 07:32:51;;;;;;;14.57;9.00;;;16.20;87.20;;;;;;4888196;29;20035;-73
2022/05/10 07:36:23;;;;;;;16.75;9.48;;;16.40;86.00;;;;;;4897859;29;20070;-71
2022/05/10 07:38:05;;;;;;;14.40;8.52;;;16.30;85.50;;;;;;4898616;29;20040;-72
2022/05/10 07:40:31;;;;;;;16.30;10.18;;;16.50;85.50;;;;;;4898941;29;20052;-72
2022/05/10 07:42:56;;;;;;;17.80;9.75;;;16.60;84.20;;;;;;4560596;29;10000268;-73
2022/05/10 07:45:22;;;;;;;17.35;11.77;;;16.90;83.00;;;;;;4899459;29;20063;-73
2022/05/10 07:47:48;;;;;;;14.20;10.43;;;16.80;83.20;;;;;;4898642;29;20666;-72
2022/05/10 07:50:13;;;;;;;17.55;11.50;;;16.70;82.80;;;;;;4896982;29;20040;-72
2022/05/10 07:52:40;;;;;;;19.27;11.70;;;16.90;83.20;;;;;;4899988;29;20024;-72
2022/05/10 07:55:06;;;;;;;14.45;10.02;;;16.90;82.70;;;;;;4897567;29;20036;-73
2022/05/10 07:57:32;;;;;;;18.70;10.85;;;16.90;83.70;;;;;;4901063;29;20032;-72
2022/05/10 07:59:58;;;;;;;18.90;9.40;;;16.90;84.20;;;;;;4898056;29;20039;-72
2022/05/10 08:02:24;;;;;;;15.80;8.60;;;16.80;83.50;;;;;;4893499;29;22370;-72
2022/05/10 08:04:49;;;;;;;14.73;9.05;;;16.80;85.60;;;;;;4899621;29;20024;-72
2022/05/10 08:07:15;;;;;;;14.07;8.00;;;16.90;84.80;;;;;;4908825;29;20509;-72
2022/05/10 08:09:41;;;;;;;16.80;8.88;;;16.70;83.20;;;;;;4907120;29;20348;-72
2022/05/10 08:12:07;;;;;;;11.98;8.10;;;16.80;84.20;;;;;;4895083;29;20056;-72
2022/05/10 08:14:32;;;;;;;18.35;8.18;;;16.80;83.60;;;;;;4895175;29;20032;-72
2022/05/10 08:16:58;;;;;;;13.57;8.55;;;16.70;84.40;;;;;;4893657;29;20638;-72
2022/05/10 08:19:24;;;;;;;16.23;9.75;;;16.50;83.90;;;;;;4897762;29;20032;-72
2022/05/10 08:21:49;;;;;;;13.60;8.30;;;16.40;86.30;;;;;;4900658;29;20036;-72
2022/05/10 08:24:15;;;;;;;14.07;7.68;;;16.20;86.00;;;;;;4891136;29;20551;-72
2022/05/10 08:26:40;;;;;;;15.45;7.20;;;15.90;85.90;;;;;;4884654;29;20511;-72
2022/05/10 08:29:06;;;;;;;14.25;7.95;;;15.60;87.50;;;;;;4890608;29;20517;-72
2022/05/10 08:31:32;;;;;;;14.23;8.63;;;15.50;88.60;;;;;;4900458;29;20071;-72
2022/05/10 08:33:57;;;;;;;17.77;10.20;;;15.30;89.50;;;;;;4899198;29;20480;-72
2022/05/10 08:36:23;;;;;;;18.83;10.65;;;15.20;90.20;;;;;;4889698;29;20621;-72
2022/05/10 08:38:49;;;;;;;17.63;9.13;;;15.20;90.70;;;;;;4897026;29;20032;-73
2022/05/10 08:41:36;;;;;;;16.40;11.18;;;15.10;90.80;;;;;;4888350;29;20636;-72
2022/05/10 08:44:15;;;;;;;24.60;12.07;;;15.10;90.40;;;;;;4888444;29;20032;-73
2022/05/10 08:46:44;;;;;;;22.30;11.75;;;14.90;90.90;;;;;;4884886;29;20514;-72
2022/05/10 08:49:33;;;;;;;17.20;11.07;;;14.80;91.60;;;;;;4895934;29;20651;-72
2022/05/10 08:51:59;;;;;;;21.33;12.10;;;14.80;91.80;;;;;;4892700;29;20236;-72
2022/05/10 08:54:28;;;;;;;23.77;12.15;;;14.90;91.70;;;;;;4887207;29;20032;-72
2022/05/10 08:57:00;;;;;;;18.10;12.77;;;14.90;91.20;;;;;;4883153;29;20597;-72
2022/05/10 08:59:26;;;;;;;17.67;10.18;;;14.90;91.70;;;;;;4884894;29;20517;-72
2022/05/10 09:02:00;;;;;;;21.10;10.45;;;15.00;91.40;;;;;;4885020;29;20477;-72
2022/05/10 09:04:47;;;;;;;20.10;10.90;;;15.20;91.20;;;;;;4890334;29;20040;-73
2022/05/10 09:07:33;;;;;;;21.90;11.00;;;15.50;91.40;;;;;;4888454;29;20056;-72
2022/05/10 09:10:20;;;;;;;15.75;10.73;;;15.70;89.90;;;;;;4903706;29;20532;-72
2022/05/10 09:12:58;;;;;;;15.95;8.73;;;15.70;90.00;;;;;;4901462;29;20043;-73
2022/05/10 09:15:27;;;;;;;14.32;8.98;;;15.80;89.70;;;;;;4889056;29;20634;-74
2022/05/10 09:17:52;;;;;;;17.25;10.25;;;15.80;88.50;;;;;;4890784;29;20519;-72
2022/05/10 09:20:18;;;;;;;18.88;9.68;;;15.70;89.80;;;;;;4889076;29;20032;-73
2022/05/10 09:23:02;;;;;;;17.30;8.45;;;15.60;90.00;;;;;;4915674;29;20100;-73
2022/05/10 09:25:41;;;;;;;15.45;8.10;;;15.60;90.00;;;;;;4901453;29;20162;-73
2022/05/10 09:28:18;;;;;;;13.48;8.30;;;15.60;90.10;;;;;;4884618;29;20107;-72
2022/05/10 09:34:45;;;;;;;16.75;8.20;;;15.80;89.00;;;;;;4905435;29;20035;-71
2022/05/10 09:36:26;;;;;;;13.15;7.13;;;16.40;88.90;;;;;;4902092;29;20168;-72
2022/05/10 09:39:13;;;;;;;11.27;6.93;;;16.70;86.40;;;;;;4905666;29;20087;-71
2022/05/10 09:41:46;;;;;;;11.60;6.75;;;16.70;86.00;;;;;;4901173;29;20076;-71
2022/05/10 09:44:30;;;;;;;10.90;6.60;;;16.80;84.60;;;;;;4904497;29;20039;-72
2022/05/10 09:47:21;;;;;;;14.13;8.48;;;16.80;86.50;;;;;;4905367;29;20040;-72
2022/05/10 09:49:47;;;;;;;;;;;16.60;86.10;;;;;;4904462;29;20504;-72
2022/05/10 09:52:22;;;;;;;10.07;6.68;;;16.60;87.70;;;;;;4907811;29;19974;-71
2022/05/10 09:54:53;;;;;;;15.02;8.02;;;16.50;85.50;;;;;;4906264;29;20116;-72
2022/05/10 09:57:34;;;;;;;14.63;9.73;;;16.40;86.60;;;;;;4901747;29;20039;-71
2022/05/10 10:00:00;;;;;;;16.27;8.23;;;16.40;87.70;;;;;;4903433;29;20032;-71
2022/05/10 10:02:29;;;;;;;12.30;8.32;;;16.40;87.50;;;;;;4905126;29;20494;-71
2022/05/10 10:04:55;;;;;;;20.30;10.40;;;16.30;87.10;;;;;;4904225;29;20114;-71
2022/05/10 10:07:24;;;;;;;18.15;9.95;;;16.20;88.20;;;;;;4896199;29;20192;-71
2022/05/10 10:09:53;;;;;;;18.15;11.13;;;16.00;87.90;;;;;;4905438;29;20119;-72
2022/05/10 10:12:37;;;;;;;18.85;10.85;;;15.80;89.30;;;;;;4566670;28;9999778;-71
2022/05/10 10:15:36;;;;;;;21.00;11.45;;;15.60;90.10;;;;;;4887407;29;20039;-71
2022/05/10 10:18:06;;;;;;;17.80;10.23;;;15.60;90.40;;;;;;4898476;29;20479;-72
2022/05/10 10:20:40;;;;;;;20.75;11.07;;;15.60;90.60;;;;;;4906694;29;20153;-72
2022/05/10 10:23:22;;;;;;;21.95;11.35;;;15.80;90.50;;;;;;4897588;29;20898;-72
2022/05/10 10:25:48;;;;;;;22.55;9.77;;;15.80;90.30;;;;;;4904685;29;20127;-72
2022/05/10 10:28:33;;;;;;;20.13;9.27;;;16.00;89.60;;;;;;4895653;29;20047;-71
2022/05/10 10:31:05;;;;;;;20.05;9.30;;;16.30;88.70;;;;;;4906589;29;20498;-71
2022/05/10 10:33:45;;;;;;;20.17;10.65;;;16.40;88.20;;;;;;4920274;29;20032;-71
2022/05/10 10:36:25;;;;;;;14.35;8.48;;;16.50;87.50;;;;;;4885557;29;20067;-72
2022/05/10 10:38:56;;;;;;;22.08;9.57;;;16.60;87.80;;;;;;4904880;29;20047;-72
2022/05/10 10:41:50;;;;;;;20.85;10.10;;;16.80;88.10;;;;;;4888393;29;20111;-72
2022/05/10 10:44:20;;;;;;;21.75;10.55;;;16.60;86.00;;;;;;4873815;29;20044;-72
2022/05/10 10:47:22;;;;;;;17.45;10.25;;;16.20;87.20;;;;;;4906526;29;20028;-71
2022/05/10 10:49:52;;;;;;;;;;;16.10;88.70;;;;;;4902934;29;20388;-72
2022/05/10 10:52:18;;;;;;;17.35;9.20;;;16.10;90.30;;;;;;4905277;29;19915;-72
2022/05/10 10:54:45;;;;;;;24.30;10.80;;;16.00;89.70;;;;;;4905291;29;20507;-72
2022/05/10 10:57:36;;;;;;;18.35;9.05;;;16.00;89.20;;;;;;4902078;29;20558;-72
2022/05/10 11:00:11;;;;;;;18.65;10.73;;;16.10;90.00;;;;;;4893808;29;20052;-73
2022/05/10 11:03:05;;;;;;;22.25;9.88;;;16.10;89.00;;;;;;4900913;29;20071;-73
2022/05/10 11:05:34;;;;;;;17.73;9.18;;;16.10;88.80;;;;;;4902991;29;20044;-72
2022/05/10 11:08:11;;;;;;;16.73;8.77;;;16.00;89.60;;;;;;4903556;29;20119;-77
2022/05/10 11:10:45;;;;;;;16.25;7.22;;;16.00;89.90;;;;;;4917218;29;20028;-72
2022/05/10 11:13:18;;;;;;;17.77;7.25;;;16.20;89.30;;;;;;4899278;29;20039;-73
2022/05/10 11:16:03;;;;;;;12.73;6.88;;;16.40;89.80;;;;;;4899300;29;20119;-72
2022/05/10 11:18:53;;;;;;;8.82;6.63;;;16.80;87.60;;;;;;4902484;29;20103;-72
2022/05/10 11:21:43;;;;;;;13.15;6.50;;;17.00;88.00;;;;;;4899825;29;20062;-73
2022/05/10 11:24:16;;;;;;;9.43;5.70;;;17.20;85.60;;;;;;4901915;29;20032;-73
2022/05/10 11:27:06;;;;;;;8.90;4.95;;;17.10;86.50;;;;;;4899464;29;20040;-73
2022/05/10 11:29:50;;;;;;;6.75;5.35;;;17.10;86.90;;;;;;4903652;29;20400;-73
2022/05/10 11:32:25;;;;;;;8.13;5.38;;;16.80;86.00;;;;;;4897152;29;20028;-73
2022/05/10 11:35:00;;;;;;;11.57;6.15;;;16.50;88.40;;;;;;4904753;29;20063;-72
2022/05/10 11:37:42;;;;;;;20.27;6.95;;;16.30;88.90;;;;;;4902255;29;20378;-74
2022/05/10 11:40:45;;;;;;;12.10;6.88;;;16.50;89.60;;;;;;4904658;29;20046;-72
2022/05/10 11:43:16;;;;;;;10.95;6.65;;;16.60;89.00;;;;;;4904083;29;20518;-74
2022/05/10 11:45:48;;;;;;;;;;;16.60;88.10;;;;;;4898766;29;20123;-73
2022/05/10 11:49:00;;;;;;;12.30;7.57;;;16.60;89.00;;;;;;4895778;29;19922;-73
2022/05/10 11:52:07;;;;;;;13.50;8.00;;;16.50;89.00;;;;;;4850385;29;20041;-73
2022/05/10 11:54:38;;;;;;;15.82;8.60;;;16.40;89.10;;;;;;4894017;29;20063;-73
2022/05/10 11:57:07;;;;;;;;;;;16.50;89.90;;;;;;4903289;29;20620;-72
2022/05/10 11:59:36;;;;;;;12.85;8.10;;;16.60;89.00;;;;;;4903953;29;19943;-72
2022/05/10 12:02:04;;;;;;;13.77;9.02;;;16.70;89.20;;;;;;4904742;29;20040;-72
2022/05/10 12:04:45;;;;;;;13.15;8.63;;;16.70;87.80;;;;;;4897106;29;20461;-73
2022/05/10 12:07:20;;;;;;;;;;;16.80;89.50;;;;;;4900843;29;20151;-73
2022/05/10 12:09:59;;;;;;;17.38;8.35;;;17.00;88.80;;;;;;4900421;29;19929;-71
2022/05/10 12:12:31;;;;;;;17.88;10.48;;;16.70;88.20;;;;;;4902731;29;20043;-71
2022/05/10 12:21:30;;;;;;;15.52;9.05;;;16.50;87.80;;;;;;4879888;29;20055;-71
2022/05/10 12:24:11;;;;;;;18.10;9.98;;;16.30;90.60;;;;;;4891337;29;20044;-72
2022/05/10 12:26:47;;;;;;;19.65;11.38;;;16.20;89.30;;;;;;4899936;29;20479;-71
2022/05/10 12:29:31;;;;;;;23.02;10.90;;;16.00;90.20;;;;;;4902154;29;20051;-72
2022/05/10 12:32:01;;;;;;;17.10;10.20;;;16.00;90.60;;;;;;4899470;29;20036;-72
2022/05/10 12:34:46;;;;;;;23.42;10.70;;;15.90;90.60;;;;;;4899423;29;20119;-72
2022/05/10 12:39:56;;;;;;;;;;;15.80;90.60;;;;;;4902942;29;20256;-72
2022/05/10 12:42:22;;;;;;;23.83;10.48;;;15.90;90.70;;;;;;4906326;29;20414;-72
2022/05/10 12:45:25;;;;;;;16.42;9.27;;;15.80;91.00;;;;;;4907409;29;20107;-73
2022/05/10 12:48:40;;;;;;;26.55;10.65;;;15.80;91.20;;;;;;4906169;29;20055;-73
2022/05/10 12:51:32;;;;;;;14.77;8.50;;;16.10;91.30;;;;;;4913927;29;20649;-72
2022/05/10 12:54:34;;;;;;;23.23;9.70;;;16.40;90.60;;;;;;4911533;29;20533;-73
2022/05/10 12:57:37;;;;;;;19.75;9.85;;;16.30;90.40;;;;;;4896984;29;20024;-73
2022/05/10 13:00:07;;;;;;;24.30;11.13;;;16.50;89.40;;;;;;4900007;29;20440;-73
2022/05/10 13:02:36;;;;;;;19.15;10.05;;;16.50;90.00;;;;;;4915484;29;20117;-72
2022/05/10 13:05:06;;;;;;;20.40;10.07;;;16.40;88.80;;;;;;4903613;29;20044;-73
2022/05/10 13:07:56;;;;;;;20.80;10.70;;;16.50;90.20;;;;;;4902129;29;20048;-73
2022/05/10 13:10:23;;;;;;;22.10;10.20;;;16.60;88.90;;;;;;4892349;29;20573;-72
2022/05/10 13:13:14;;;;;;;24.90;12.73;;;16.80;89.40;;;;;;4881020;29;20025;-72
2022/05/10 13:15:44;;;;;;;28.87;11.70;;;16.70;87.60;;;;;;4892984;29;20031;-72